Time;durP1;ratioP1;P1;durP2;ratioP2;P2;SDS_P1;SDS_P2;PMS_P1;PMS_P2;Temp;Humidity;BMP_temperature;BMP_pressure;BME280_temperature;BME280_humidity;BME280_pressure;Samples;Min_cycle;Max_cycle;Signal;HPM_P1;HPM_P2
2021/09/26 00:01:07;;;;;;;6.55;5.35;;;;;;;19.83;68.36;101420.53;4942580;29;20254;-79
2021/09/26 00:03:32;;;;;;;4.60;4.20;;;;;;;19.90;67.92;101415.63;4952522;28;20300;-78
2021/09/26 00:05:58;;;;;;;6.90;4.80;;;;;;;19.91;68.06;101415.50;4939996;29;20031;-79
2021/09/26 00:08:23;;;;;;;5.72;4.75;;;;;;;19.91;67.83;101412.03;4943632;29;20043;-78
2021/09/26 00:10:48;;;;;;;5.75;4.88;;;;;;;19.90;67.85;101407.66;4939391;29;20031;-77
2021/09/26 00:13:14;;;;;;;5.05;4.57;;;;;;;19.89;67.89;101412.13;4946919;28;20031;-76
2021/09/26 00:15:39;;;;;;;5.60;5.03;;;;;;;19.99;67.92;101408.81;4954655;29;20039;-76
2021/09/26 00:18:05;;;;;;;5.60;5.10;;;;;;;19.94;67.54;101409.16;4936967;29;20321;-76
2021/09/26 00:20:30;;;;;;;5.70;4.65;;;;;;;19.90;67.76;101405.84;4957334;29;20094;-76
2021/09/26 00:22:56;;;;;;;8.38;4.95;;;;;;;19.90;67.58;101405.00;4922510;29;20031;-77
2021/09/26 00:25:21;;;;;;;6.78;5.05;;;;;;;19.88;67.74;101410.44;4933193;29;20039;-77
2021/09/26 00:27:47;;;;;;;7.70;4.65;;;;;;;19.87;67.64;101405.22;4932692;29;20035;-77
2021/09/26 00:30:14;;;;;;;5.57;4.35;;;;;;;19.86;67.69;101411.50;4927989;29;20055;-77
2021/09/26 00:32:40;;;;;;;8.15;5.32;;;;;;;19.89;67.61;101408.63;4940675;29;20034;-77
2021/09/26 00:35:06;;;;;;;5.28;4.35;;;;;;;19.85;67.59;101410.66;4953855;29;20254;-77
2021/09/26 00:37:31;;;;;;;5.47;4.53;;;;;;;19.85;67.86;101412.47;4933833;29;20031;-77
2021/09/26 00:39:57;;;;;;;5.10;4.60;;;;;;;19.88;67.42;101404.25;4951544;29;20035;-76
2021/09/26 00:42:22;;;;;;;6.88;4.70;;;;;;;19.92;67.56;101403.09;4945762;29;20050;-77
2021/09/26 00:44:47;;;;;;;5.35;4.20;;;;;;;19.86;67.76;101404.34;4946610;29;20031;-77
2021/09/26 00:47:13;;;;;;;7.10;4.60;;;;;;;19.90;67.21;101407.66;4945104;29;20023;-77
2021/09/26 00:49:39;;;;;;;5.45;4.95;;;;;;;19.86;67.54;101411.50;4945259;29;20106;-76
2021/09/26 00:52:04;;;;;;;5.28;4.47;;;;;;;19.86;67.43;101414.16;4945387;29;20039;-77
2021/09/26 00:54:30;;;;;;;9.30;4.78;;;;;;;19.91;67.52;101418.19;4944964;29;20026;-77
2021/09/26 00:56:55;;;;;;;6.03;4.50;;;;;;;19.88;67.49;101410.44;4961309;29;20031;-76
2021/09/26 00:59:20;;;;;;;12.25;10.38;;;;;;;19.84;67.51;101411.59;4940828;29;20257;-77
2021/09/26 01:05:10;;;;;;;13.15;10.95;;;;;;;19.84;67.83;101406.28;4957171;28;20058;-79
2021/09/26 01:08:04;;;;;;;12.55;7.45;;;;;;;19.81;67.82;101400.31;4961572;29;20027;-78
2021/09/26 01:10:39;;;;;;;15.68;10.30;;;;;;;19.75;67.88;101389.19;4946028;29;20031;-77
2021/09/26 01:13:27;;;;;;;11.73;10.27;;;;;;;19.77;67.70;101388.22;4943365;29;20037;-78
2021/09/26 01:16:04;;;;;;;;;;;;;;;19.74;67.73;101384.84;4935804;29;20047;-77
2021/09/26 01:18:56;;;;;;;10.13;6.82;;;;;;;19.79;67.40;101381.00;4946270;29;19911;-77
2021/09/26 01:21:26;;;;;;;9.82;6.65;;;;;;;19.80;67.61;101388.00;4962888;29;20031;-77
2021/09/26 01:24:04;;;;;;;14.23;10.60;;;;;;;19.75;67.54;101373.25;4947167;29;20093;-78
2021/09/26 01:26:36;;;;;;;;;;;;;;;19.76;67.67;101376.75;4948716;29;20086;-79
2021/09/26 01:29:38;;;;;;;11.27;10.07;;;;;;;19.70;67.63;101372.69;4962495;29;19925;-78
2021/09/26 01:32:03;;;;;;;10.68;8.57;;;;;;;19.79;67.43;101375.69;4946658;29;20038;-78
2021/09/26 01:34:33;;;;;;;14.43;11.13;;;;;;;19.72;67.42;101370.78;4926367;29;20031;-78
2021/09/26 01:37:25;;;;;;;14.20;10.75;;;;;;;19.78;67.62;101368.69;4926763;29;20020;-78
2021/09/26 01:40:10;;;;;;;14.43;11.63;;;;;;;19.73;67.67;101374.31;4944335;29;20258;-78
2021/09/26 01:42:38;;;;;;;14.40;7.72;;;;;;;19.72;67.31;101365.47;4950710;29;20059;-79
2021/09/26 01:45:13;;;;;;;13.40;10.98;;;;;;;19.67;67.32;101374.72;4946468;29;20322;-78
2021/09/26 01:47:57;;;;;;;13.40;11.07;;;;;;;19.66;67.21;101371.19;4946287;29;20027;-78
2021/09/26 01:50:23;;;;;;;9.88;7.93;;;;;;;19.67;67.39;101375.56;4934535;29;20077;-78
2021/09/26 01:52:48;;;;;;;7.45;6.13;;;;;;;19.69;67.48;101368.31;4943500;29;20035;-78
2021/09/26 01:55:14;;;;;;;11.90;10.68;;;;;;;19.69;67.62;101372.81;4926948;29;20038;-78
2021/09/26 01:57:39;;;;;;;7.03;6.28;;;;;;;19.67;67.60;101361.44;4954314;29;20028;-79
2021/09/26 02:00:05;;;;;;;6.82;6.13;;;;;;;19.63;67.71;101374.09;4946061;29;20271;-77
2021/09/26 02:02:31;;;;;;;13.18;10.65;;;;;;;19.58;67.75;101362.94;4942696;29;20058;-78
2021/09/26 02:05:00;;;;;;;6.10;5.28;;;;;;;19.63;67.42;101366.13;4927518;29;20028;-78
2021/09/26 02:07:36;;;;;;;6.30;5.38;;;;;;;19.55;67.78;101369.31;4942579;29;20023;-78
2021/09/26 02:10:02;;;;;;;5.75;4.18;;;;;;;19.64;67.60;101375.75;4939714;29;20083;-78
2021/09/26 02:12:28;;;;;;;5.45;4.13;;;;;;;19.77;67.21;101374.94;4942755;29;20118;-78
2021/09/26 02:14:54;;;;;;;4.70;4.38;;;;;;;19.65;67.55;101368.66;4929755;29;20031;-78
2021/09/26 02:17:22;;;;;;;7.70;5.10;;;;;;;19.65;67.38;101366.84;4942226;29;20049;-78
2021/09/26 02:19:48;;;;;;;6.23;4.77;;;;;;;19.65;67.30;101363.34;4931358;29;20054;-78
2021/09/26 02:22:13;;;;;;;5.70;5.30;;;;;;;19.65;67.09;101372.16;4942500;29;20619;-78
2021/09/26 02:24:38;;;;;;;8.80;7.28;;;;;;;19.63;67.35;101370.56;4949674;29;20039;-78
2021/09/26 02:27:04;;;;;;;10.90;6.90;;;;;;;19.59;67.59;101359.28;4943817;29;20042;-78
2021/09/26 02:29:30;;;;;;;8.95;7.47;;;;;;;19.59;67.36;101369.06;4931737;29;20067;-78
2021/09/26 02:31:55;;;;;;;8.60;6.15;;;;;;;19.63;67.28;101371.44;4930362;29;20381;-78
2021/09/26 02:34:21;;;;;;;11.68;10.52;;;;;;;19.64;67.42;101369.63;4958233;29;20057;-78
2021/09/26 02:36:46;;;;;;;11.32;7.63;;;;;;;19.58;67.30;101370.06;4944655;29;20039;-78
2021/09/26 02:39:12;;;;;;;5.00;4.53;;;;;;;19.54;67.41;101366.75;4957368;29;20045;-78
2021/09/26 02:42:13;;;;;;;7.70;6.57;;;;;;;19.60;67.21;101363.66;4942621;29;20027;-78
2021/09/26 02:44:45;;;;;;;5.53;5.03;;;;;;;19.65;67.24;101355.38;4945822;29;20233;-78
2021/09/26 02:47:16;;;;;;;12.23;7.88;;;;;;;19.62;67.03;101356.44;4946791;29;20031;-77
2021/09/26 02:49:41;;;;;;;8.20;7.38;;;;;;;19.56;67.28;101362.19;4942994;29;20282;-79
2021/09/26 02:52:08;;;;;;;5.90;4.70;;;;;;;19.58;67.30;101359.44;4926358;29;20306;-78
2021/09/26 02:54:38;;;;;;;7.47;6.15;;;;;;;19.57;67.05;101361.22;4928257;29;20024;-78
2021/09/26 02:57:07;;;;;;;7.25;6.65;;;;;;;19.57;67.27;101358.56;4945645;29;20520;-78
2021/09/26 02:59:32;;;;;;;4.85;4.43;;;;;;;19.59;67.11;101361.94;4941608;29;20062;-78
2021/09/26 03:01:58;;;;;;;7.68;6.38;;;;;;;19.56;67.18;101355.06;4960087;29;20090;-78
2021/09/26 03:04:23;;;;;;;10.85;9.85;;;;;;;19.55;67.32;101347.19;4939721;29;20330;-79
2021/09/26 03:06:48;;;;;;;8.90;6.70;;;;;;;19.54;67.21;101348.16;4953532;29;20047;-78
2021/09/26 03:09:14;;;;;;;15.77;11.63;;;;;;;19.55;67.22;101347.19;4943281;29;20047;-78
2021/09/26 03:11:39;;;;;;;7.07;6.38;;;;;;;19.47;67.39;101342.44;4962152;29;20062;-78
2021/09/26 03:14:05;;;;;;;8.27;5.93;;;;;;;19.55;67.21;101347.19;4923081;29;20258;-78
2021/09/26 03:16:30;;;;;;;7.90;7.20;;;;;;;19.52;67.29;101350.09;4957457;29;20027;-78
2021/09/26 03:18:56;;;;;;;7.50;6.65;;;;;;;19.48;67.43;101349.44;4958229;29;20031;-78
2021/09/26 03:21:21;;;;;;;6.25;5.65;;;;;;;19.51;67.04;101346.56;4943493;29;20039;-78
2021/09/26 03:23:47;;;;;;;8.80;7.88;;;;;;;19.50;67.12;101344.00;4957606;29;20300;-78
2021/09/26 03:26:12;;;;;;;7.75;6.97;;;;;;;19.48;67.21;101351.22;4933390;29;20040;-78
2021/09/26 03:28:37;;;;;;;7.80;6.95;;;;;;;19.48;67.16;101344.13;4958512;29;20373;-78
2021/09/26 03:31:03;;;;;;;9.32;8.38;;;;;;;19.51;67.08;101333.28;4944993;29;20023;-78
2021/09/26 03:33:28;;;;;;;11.60;8.35;;;;;;;19.55;66.78;101329.47;4946016;29;20043;-78
2021/09/26 03:35:54;;;;;;;9.85;8.85;;;;;;;19.52;67.07;101335.00;4944974;29;20031;-78
2021/09/26 03:38:19;;;;;;;13.68;12.05;;;;;;;19.50;66.75;101338.69;4939886;29;20339;-77
2021/09/26 03:40:45;;;;;;;16.27;11.77;;;;;;;19.50;66.76;101341.34;4945296;29;20109;-78
2021/09/26 03:43:10;;;;;;;8.52;7.63;;;;;;;19.48;67.02;101341.47;4964075;29;20082;-78
2021/09/26 03:45:36;;;;;;;6.25;5.75;;;;;;;19.51;66.95;101337.75;4928692;29;20056;-77
2021/09/26 03:48:01;;;;;;;11.30;7.03;;;;;;;19.50;66.96;101338.69;4945176;29;20027;-78
2021/09/26 03:50:27;;;;;;;11.63;7.75;;;;;;;19.49;66.60;101329.88;4931155;29;20027;-78
2021/09/26 03:52:52;;;;;;;11.05;9.90;;;;;;;19.51;66.60;101329.78;4947563;29;20042;-78
2021/09/26 03:55:18;;;;;;;6.78;6.18;;;;;;;19.52;66.74;101334.16;4960998;29;20366;-79
2021/09/26 03:57:43;;;;;;;6.95;5.75;;;;;;;19.46;66.99;101329.25;4951488;29;20042;-79
2021/09/26 04:00:11;;;;;;;11.88;10.23;;;;;;;19.51;66.86;101335.09;4953009;29;20059;-78
2021/09/26 04:02:37;;;;;;;14.25;11.10;;;;;;;19.48;66.96;101328.19;4933049;29;20331;-77
2021/09/26 04:05:03;;;;;;;12.50;9.82;;;;;;;19.48;66.87;101325.53;4961644;29;20046;-77
2021/09/26 04:07:28;;;;;;;13.63;10.93;;;;;;;19.51;66.78;101327.13;4943732;29;20377;-77
2021/09/26 04:09:53;;;;;;;7.20;6.55;;;;;;;19.44;66.93;101324.03;4929021;29;20028;-78
2021/09/26 04:12:19;;;;;;;8.10;6.10;;;;;;;19.48;66.54;101327.34;4914246;29;20235;-78
2021/09/26 04:14:44;;;;;;;8.73;7.30;;;;;;;19.44;66.64;101324.03;4944492;29;20071;-78
2021/09/26 04:17:10;;;;;;;11.23;7.28;;;;;;;19.46;66.90;101334.56;4947083;29;20234;-77
2021/09/26 04:19:35;;;;;;;5.95;5.38;;;;;;;19.50;66.51;101333.38;4947453;29;20042;-77
2021/09/26 04:22:01;;;;;;;7.63;6.97;;;;;;;19.48;66.34;101327.34;4943999;29;20051;-77
2021/09/26 04:24:26;;;;;;;13.23;9.43;;;;;;;19.50;66.54;101333.38;4945216;29;20373;-78
2021/09/26 04:26:52;;;;;;;9.63;8.57;;;;;;;19.46;66.83;101329.25;4922433;29;20019;-78
2021/09/26 04:29:17;;;;;;;6.43;5.65;;;;;;;19.44;66.62;101332.00;4962508;29;20031;-78
2021/09/26 04:31:43;;;;;;;4.82;4.43;;;;;;;19.44;66.50;101328.50;4955358;29;20043;-79
2021/09/26 04:34:08;;;;;;;8.13;6.93;;;;;;;19.48;66.60;101328.19;4944055;29;20035;-79
2021/09/26 04:36:34;;;;;;;7.47;6.78;;;;;;;19.44;66.63;101331.16;4943439;29;20031;-78
2021/09/26 04:38:59;;;;;;;6.32;5.32;;;;;;;19.45;66.45;101330.22;4932175;29;20035;-78
2021/09/26 04:41:24;;;;;;;5.13;4.32;;;;;;;19.43;66.90;101338.28;4943168;29;20078;-78
2021/09/26 04:43:50;;;;;;;11.85;9.57;;;;;;;19.43;66.59;101332.13;4934606;29;20051;-78
2021/09/26 04:46:15;;;;;;;14.40;11.50;;;;;;;19.44;66.51;101332.00;4959411;29;20031;-77
2021/09/26 04:48:41;;;;;;;12.10;10.20;;;;;;;19.48;66.27;101333.50;4946219;29;20240;-78
2021/09/26 04:51:06;;;;;;;11.20;8.20;;;;;;;19.45;66.35;101333.72;4929102;29;20036;-77
2021/09/26 04:53:31;;;;;;;10.65;9.40;;;;;;;19.43;66.40;101325.03;4932844;29;20039;-77
2021/09/26 04:55:58;;;;;;;8.00;6.72;;;;;;;19.43;66.41;101329.47;4946874;29;20338;-77
2021/09/26 04:58:23;;;;;;;5.78;5.20;;;;;;;19.43;66.39;101327.66;4954318;29;20035;-77
2021/09/26 05:00:50;;;;;;;4.05;3.70;;;;;;;19.48;66.22;101330.00;4936990;29;20358;-78
2021/09/26 05:03:15;;;;;;;5.20;4.70;;;;;;;19.46;66.30;101323.94;4935773;29;20290;-79
2021/09/26 05:05:41;;;;;;;6.40;5.45;;;;;;;19.45;66.05;101328.41;4961919;29;20035;-78
2021/09/26 05:08:06;;;;;;;8.00;6.90;;;;;;;19.46;66.14;101321.28;4943327;29;20031;-78
2021/09/26 05:10:32;;;;;;;13.13;11.45;;;;;;;19.49;66.00;101327.22;4940340;29;20030;-78
2021/09/26 05:12:58;;;;;;;19.58;9.18;;;;;;;19.43;66.22;101319.72;4949679;29;20071;-77
2021/09/26 05:15:23;;;;;;;8.75;7.60;;;;;;;19.43;66.36;101324.16;4942787;29;20032;-78
2021/09/26 05:17:48;;;;;;;12.07;10.38;;;;;;;19.40;66.24;101316.41;4939504;29;20226;-78
2021/09/26 05:20:14;;;;;;;15.73;11.55;;;;;;;19.44;66.08;101315.22;4927297;29;20043;-78
2021/09/26 05:22:39;;;;;;;12.88;10.85;;;;;;;19.41;66.13;101304.81;4927921;29;20047;-78
2021/09/26 05:25:05;;;;;;;15.27;11.45;;;;;;;19.44;65.97;101308.09;4927374;29;20034;-81
2021/09/26 05:27:31;;;;;;;15.70;12.13;;;;;;;19.43;66.03;101321.50;4941269;29;20258;-77
2021/09/26 05:29:56;;;;;;;16.13;11.27;;;;;;;19.44;66.14;101323.19;4963590;29;20074;-78
2021/09/26 05:32:22;;;;;;;12.45;10.25;;;;;;;19.41;66.08;101318.09;4956122;29;20038;-78
2021/09/26 05:34:47;;;;;;;7.05;6.32;;;;;;;19.42;65.89;101325.13;4950183;29;20034;-78
2021/09/26 05:37:13;;;;;;;6.22;5.68;;;;;;;19.43;66.04;101327.66;4945698;29;20033;-78
2021/09/26 05:39:38;;;;;;;7.38;6.68;;;;;;;19.42;65.89;101322.47;4963326;29;20043;-77
2021/09/26 05:42:06;;;;;;;8.07;6.22;;;;;;;19.44;66.02;101325.84;4945447;29;20342;-78
2021/09/26 05:44:32;;;;;;;5.13;4.65;;;;;;;19.43;65.89;101326.81;4946258;29;20291;-78
2021/09/26 05:46:57;;;;;;;12.63;8.95;;;;;;;19.58;67.07;101336.34;4954544;29;20035;-78
2021/09/26 05:49:23;;;;;;;11.75;5.03;;;;;;;19.55;68.86;101339.22;4945588;29;20055;-77
2021/09/26 05:51:48;;;;;;;13.60;5.05;;;;;;;19.60;69.77;101328.28;4957813;29;20035;-77
2021/09/26 05:54:13;;;;;;;7.53;4.75;;;;;;;19.62;70.12;101337.00;4965213;28;20310;-78
2021/09/26 05:56:39;;;;;;;7.65;5.18;;;;;;;19.61;70.27;101333.50;4973676;28;20047;-78
2021/09/26 05:59:04;;;;;;;7.03;4.40;;;;;;;19.61;70.37;101328.19;4965222;28;20106;-77
2021/09/26 06:01:30;;;;;;;17.65;6.20;;;;;;;19.65;70.33;101331.47;4961294;28;20039;-77
2021/09/26 06:03:55;;;;;;;9.45;4.95;;;;;;;19.62;70.35;101327.22;4948733;28;20037;-79
2021/09/26 06:06:24;;;;;;;8.77;4.85;;;;;;;19.71;70.34;101323.88;4968808;28;20079;-79
2021/09/26 06:08:49;;;;;;;13.32;4.90;;;;;;;19.65;70.34;101315.53;4955632;28;20044;-79
2021/09/26 06:11:15;;;;;;;19.73;7.32;;;;;;;19.66;70.23;101319.88;4969459;28;20089;-78
2021/09/26 06:13:40;;;;;;;8.68;5.00;;;;;;;19.65;69.97;101324.34;4946864;28;20334;-78
2021/09/26 06:16:05;;;;;;;22.02;4.90;;;;;;;19.70;70.17;101322.22;4948379;28;20045;-78
2021/09/26 06:18:31;;;;;;;15.60;4.72;;;;;;;19.71;70.07;101329.19;4953729;29;20039;-78
2021/09/26 06:20:56;;;;;;;18.13;5.45;;;;;;;19.71;70.15;101331.84;4961422;29;20415;-78
2021/09/26 06:23:21;;;;;;;15.57;5.35;;;;;;;19.70;69.93;101332.84;4958372;29;20289;-78
2021/09/26 06:25:47;;;;;;;14.57;5.35;;;;;;;19.73;69.62;101327.31;4944103;29;20031;-79
2021/09/26 06:28:12;;;;;;;20.13;6.35;;;;;;;19.79;69.56;101330.50;4943330;29;20110;-79
2021/09/26 06:30:38;;;;;;;14.77;5.72;;;;;;;19.82;69.52;101330.28;4960376;29;20097;-78
2021/09/26 06:33:04;;;;;;;26.00;6.72;;;;;;;19.80;69.64;101341.03;4954096;28;20046;-78
2021/09/26 06:35:29;;;;;;;20.00;6.97;;;;;;;19.81;69.47;101342.72;4925382;29;20036;-78
2021/09/26 06:37:55;;;;;;;24.95;7.35;;;;;;;19.78;69.36;101345.59;4940106;29;20039;-79
2021/09/26 06:40:21;;;;;;;18.48;7.35;;;;;;;19.82;69.38;101349.72;4942675;28;20041;-79
2021/09/26 06:42:46;;;;;;;18.15;6.80;;;;;;;19.81;69.28;101357.81;4956698;29;20059;-79
2021/09/26 06:45:12;;;;;;;14.57;5.95;;;;;;;19.90;68.61;101354.50;4941514;28;20070;-80
2021/09/26 06:47:37;;;;;;;18.05;5.75;;;;;;;19.98;68.39;101353.97;4937654;29;20342;-80
2021/09/26 06:50:03;;;;;;;15.13;10.73;;;;;;;19.97;67.96;101355.75;4947003;29;20040;-80
2021/09/26 06:52:28;;;;;;;21.50;8.32;;;;;;;19.98;67.99;101356.63;4947807;29;20031;-80
2021/09/26 06:54:54;;;;;;;17.38;6.43;;;;;;;20.06;67.56;101354.22;4953618;29;20254;-80
2021/09/26 06:57:19;;;;;;;11.20;5.72;;;;;;;20.07;67.28;101369.25;4922379;29;20036;-79
2021/09/26 06:59:45;;;;;;;16.73;8.18;;;;;;;20.10;67.19;101361.88;4941744;29;20047;-80
2021/09/26 07:02:10;;;;;;;17.92;6.82;;;;;;;20.14;66.78;101367.84;4948156;28;20035;-80
2021/09/26 07:04:35;;;;;;;16.65;6.50;;;;;;;20.17;66.70;101366.75;4925946;29;20031;-80
2021/09/26 07:07:01;;;;;;;12.48;6.28;;;;;;;20.19;66.64;101367.47;4950392;29;20393;-80
2021/09/26 07:09:26;;;;;;;16.13;7.03;;;;;;;20.25;66.30;101367.06;4929239;29;20227;-80
2021/09/26 07:11:52;;;;;;;17.75;7.50;;;;;;;20.29;66.01;101360.53;4943120;29;20040;-80
2021/09/26 07:14:17;;;;;;;15.95;6.45;;;;;;;20.33;65.97;101362.00;4941270;29;20038;-80
2021/09/26 07:16:43;;;;;;;18.55;6.60;;;;;;;20.56;65.19;101359.47;4926131;29;20043;-79
2021/09/26 07:19:08;;;;;;;12.07;6.40;;;;;;;20.65;64.71;101361.47;4942414;29;20103;-79
2021/09/26 07:21:33;;;;;;;15.55;8.02;;;;;;;20.80;64.23;101367.44;4937024;29;20039;-79
2021/09/26 07:23:59;;;;;;;10.77;5.22;;;;;;;20.80;64.14;101370.94;4945406;29;20027;-79
2021/09/26 07:26:24;;;;;;;11.90;7.80;;;;;;;20.79;64.10;101363.94;4960880;29;20305;-80
2021/09/26 07:28:50;;;;;;;11.98;7.78;;;;;;;20.95;63.56;101365.44;4942589;29;20082;-80
2021/09/26 07:31:15;;;;;;;12.73;8.30;;;;;;;21.07;62.91;101367.16;4938258;29;20055;-80
2021/09/26 07:33:41;;;;;;;9.70;8.13;;;;;;;21.17;62.55;101361.97;4933762;29;20035;-80
2021/09/26 07:36:07;;;;;;;9.90;7.70;;;;;;;21.21;62.63;101356.28;4943595;29;20040;-80
2021/09/26 07:38:32;;;;;;;11.45;8.95;;;;;;;21.37;61.99;101358.59;4942864;29;20035;-80
2021/09/26 07:40:57;;;;;;;12.10;7.90;;;;;;;21.51;61.59;101354.03;4955039;29;20031;-80
2021/09/26 07:43:25;;;;;;;12.25;6.07;;;;;;;21.67;60.91;101359.84;4958978;29;20064;-80
2021/09/26 07:45:51;;;;;;;10.25;4.78;;;;;;;21.80;60.53;101368.56;4950250;29;20035;-80
2021/09/26 07:48:16;;;;;;;14.07;7.07;;;;;;;21.96;59.87;101378.00;4934079;29;20044;-81
2021/09/26 07:50:41;;;;;;;20.55;7.13;;;;;;;22.14;59.37;101378.31;4957904;29;20332;-81
2021/09/26 07:53:07;;;;;;;13.77;5.53;;;;;;;22.27;58.93;101387.06;4924388;29;20039;-81
2021/09/26 07:55:32;;;;;;;11.70;8.13;;;;;;;22.37;58.52;101395.16;4933445;29;20350;-80
2021/09/26 07:57:58;;;;;;;10.52;5.00;;;;;;;22.35;58.58;101397.09;4964481;29;20086;-81
2021/09/26 08:00:23;;;;;;;10.65;5.97;;;;;;;22.14;59.11;101405.00;4943261;29;20035;-81
2021/09/26 08:02:49;;;;;;;7.90;6.88;;;;;;;22.02;59.67;101404.16;4928063;29;20039;-81
2021/09/26 08:05:14;;;;;;;13.38;9.43;;;;;;;21.98;59.84;101413.41;4942309;29;20039;-80
2021/09/26 08:07:39;;;;;;;10.25;7.28;;;;;;;21.98;59.40;101408.91;4939350;29;20069;-80
2021/09/26 08:10:06;;;;;;;12.10;7.10;;;;;;;22.03;59.35;101411.22;4949788;29;20046;-80
2021/09/26 08:12:31;;;;;;;10.35;8.35;;;;;;;22.14;59.22;101415.66;4921164;29;20054;-80
2021/09/26 08:14:57;;;;;;;19.60;10.77;;;;;;;22.33;58.48;101420.41;4936198;29;20357;-81
2021/09/26 08:17:22;;;;;;;9.52;7.65;;;;;;;22.37;58.22;101412.00;4954402;29;20047;-80
2021/09/26 08:19:48;;;;;;;14.80;6.07;;;;;;;22.38;57.93;101412.88;4945052;29;20090;-81
2021/09/26 08:22:13;;;;;;;10.88;7.25;;;;;;;22.59;57.56;101413.78;4944460;29;20031;-80
2021/09/26 08:24:40;;;;;;;8.70;7.07;;;;;;;23.41;55.03;101414.94;4939899;29;20235;-80
2021/09/26 08:27:06;;;;;;;12.02;6.65;;;;;;;24.03;53.26;101418.50;4952470;29;20039;-80
2021/09/26 08:29:34;;;;;;;11.80;8.18;;;;;;;24.51;51.72;101416.91;4925463;29;20129;-81
2021/09/26 08:32:00;;;;;;;10.88;7.72;;;;;;;24.92;50.54;101417.63;4936597;29;20143;-81
2021/09/26 08:34:25;;;;;;;10.98;5.40;;;;;;;25.12;50.20;101415.75;4925845;29;20039;-82
2021/09/26 08:36:51;;;;;;;9.73;8.30;;;;;;;24.13;52.71;101415.84;4954199;29;20226;-81
2021/09/26 08:39:17;;;;;;;7.82;5.95;;;;;;;23.51;54.41;101417.69;4942075;29;20044;-81
2021/09/26 08:41:42;;;;;;;13.63;10.80;;;;;;;23.17;55.53;101413.38;4944379;29;20235;-82
2021/09/26 08:44:08;;;;;;;9.38;7.57;;;;;;;23.00;55.94;101411.28;4935257;29;20054;-82
2021/09/26 08:46:33;;;;;;;8.68;6.15;;;;;;;22.89;56.44;101417.53;4926238;29;20020;-82
2021/09/26 08:48:59;;;;;;;10.23;6.88;;;;;;;22.83;56.66;101417.19;4944321;29;20039;-82
2021/09/26 08:51:24;;;;;;;6.53;4.68;;;;;;;22.79;56.54;101422.81;4949497;29;20079;-81
2021/09/26 08:53:50;;;;;;;6.57;4.68;;;;;;;22.76;56.73;101420.38;4952997;29;20070;-82
2021/09/26 08:56:16;;;;;;;11.45;5.57;;;;;;;22.74;56.46;101419.66;4942807;29;20027;-82
2021/09/26 08:58:42;;;;;;;8.10;5.00;;;;;;;22.75;56.56;101417.84;4921551;29;20287;-81
2021/09/26 09:01:07;;;;;;;8.85;6.93;;;;;;;22.75;56.63;101417.84;4925584;29;20035;-81
2021/09/26 09:03:33;;;;;;;7.45;5.85;;;;;;;22.75;56.86;101426.69;4934910;28;20054;-81
2021/09/26 09:05:59;;;;;;;7.10;5.93;;;;;;;22.77;56.45;101431.91;4929201;29;20163;-80
2021/09/26 09:08:25;;;;;;;6.07;5.57;;;;;;;22.77;56.46;101426.56;4943007;29;20067;-81
2021/09/26 09:10:55;;;;;;;5.13;4.57;;;;;;;22.79;56.57;101427.28;4945487;29;20027;-80
2021/09/26 09:13:35;;;;;;;6.82;5.32;;;;;;;22.87;56.19;101432.00;4919680;28;20047;-81
2021/09/26 09:16:13;;;;;;;9.38;7.55;;;;;;;22.85;56.11;101432.13;4936439;29;20039;-81
2021/09/26 09:18:53;;;;;;;10.10;7.10;;;;;;;22.86;56.12;101432.97;4952405;28;20035;-80
2021/09/26 09:21:20;;;;;;;6.03;4.30;;;;;;;22.88;56.25;101433.69;4942216;28;20035;-80
2021/09/26 09:23:46;;;;;;;4.90;3.58;;;;;;;22.91;56.18;101441.44;4922729;29;20090;-80
2021/09/26 09:26:12;;;;;;;11.18;7.13;;;;;;;23.01;55.70;101439.69;4940922;29;20035;-80
2021/09/26 09:28:40;;;;;;;5.60;4.93;;;;;;;23.06;55.32;101442.84;4942565;29;20039;-80
2021/09/26 09:31:06;;;;;;;6.18;4.53;;;;;;;23.19;55.08;101437.31;4953668;28;20036;-81
2021/09/26 09:33:38;;;;;;;8.55;6.32;;;;;;;23.74;53.63;101442.44;4945105;29;20071;-82
2021/09/26 09:36:04;;;;;;;8.35;6.32;;;;;;;23.73;53.40;101444.22;4950305;29;20038;-80
2021/09/26 09:38:35;;;;;;;6.65;5.97;;;;;;;23.66;53.58;101444.91;4953247;28;20039;-79
2021/09/26 09:41:01;;;;;;;8.15;4.47;;;;;;;24.25;52.27;101449.53;4931211;29;20031;-80
2021/09/26 09:43:29;;;;;;;5.95;4.13;;;;;;;23.90;52.73;101452.66;4945370;28;20059;-79
2021/09/26 09:46:01;;;;;;;5.70;5.20;;;;;;;23.75;53.40;101450.28;4936389;29;20031;-80
2021/09/26 09:48:29;;;;;;;6.95;5.30;;;;;;;23.77;53.23;101451.00;4946846;28;20039;-80
2021/09/26 09:51:01;;;;;;;5.95;5.10;;;;;;;23.67;53.80;101446.63;4952896;28;20059;-80
2021/09/26 09:53:37;;;;;;;8.55;6.15;;;;;;;23.83;53.36;101455.03;4952102;28;20074;-79
2021/09/26 09:56:26;;;;;;;9.95;7.80;;;;;;;23.96;52.87;101457.47;4942683;29;20104;-79
2021/09/26 09:58:52;;;;;;;7.35;6.18;;;;;;;24.08;52.47;101464.41;4953661;28;20038;-79
2021/09/26 10:01:28;;;;;;;8.35;7.65;;;;;;;24.66;51.21;101463.72;4943831;29;20350;-80
2021/09/26 10:04:00;;;;;;;12.23;7.82;;;;;;;25.97;47.22;101458.78;4941604;29;20032;-80
2021/09/26 10:06:40;;;;;;;7.22;5.22;;;;;;;25.79;47.92;101450.63;4910994;28;20086;-79
2021/09/26 10:09:15;;;;;;;10.30;6.85;;;;;;;25.46;48.29;101448.31;4950673;28;20039;-79
2021/09/26 10:11:55;;;;;;;7.45;6.15;;;;;;;25.91;47.55;101448.59;4949786;28;20038;-79
2021/09/26 10:14:24;;;;;;;5.90;5.40;;;;;;;27.15;44.40;101452.44;4920895;29;20093;-80
2021/09/26 10:16:50;;;;;;;7.22;6.53;;;;;;;27.36;43.80;101454.81;4939956;29;20036;-80
2021/09/26 10:19:16;;;;;;;5.88;4.15;;;;;;;27.02;44.49;101454.69;4941804;29;20200;-80
2021/09/26 10:21:41;;;;;;;6.53;6.03;;;;;;;26.93;44.83;101456.47;4933031;28;20039;-80
2021/09/26 10:24:07;;;;;;;7.35;5.88;;;;;;;26.58;45.20;101457.28;4933937;29;20154;-80
2021/09/26 10:26:33;;;;;;;5.63;4.15;;;;;;;26.11;46.46;101457.44;4937892;29;20046;-80
2021/09/26 10:28:59;;;;;;;7.00;6.38;;;;;;;26.75;45.37;101450.25;4939869;29;20019;-80
2021/09/26 10:31:25;;;;;;;6.93;4.88;;;;;;;26.98;44.75;101453.31;4929348;28;20032;-80
2021/09/26 10:33:51;;;;;;;4.88;4.45;;;;;;;27.18;44.15;101454.00;4933210;29;20065;-80
2021/09/26 10:36:20;;;;;;;7.55;6.85;;;;;;;26.39;45.60;101459.09;4936710;29;20051;-80
2021/09/26 10:38:48;;;;;;;5.10;4.70;;;;;;;26.15;46.61;101465.03;4939567;29;20203;-80
2021/09/26 10:41:13;;;;;;;5.55;4.10;;;;;;;26.75;45.07;101464.53;4937975;28;20070;-81
2021/09/26 10:43:39;;;;;;;5.82;3.85;;;;;;;27.03;43.95;101463.59;4955811;28;20071;-77
2021/09/26 10:46:17;;;;;;;3.67;3.30;;;;;;;27.14;44.23;101460.66;4954390;28;20036;-78
2021/09/26 10:49:03;;;;;;;5.90;4.28;;;;;;;27.25;44.05;101467.63;4934680;29;20059;-79
2021/09/26 10:51:48;;;;;;;7.25;5.93;;;;;;;27.14;44.14;101463.34;4943515;29;20028;-78
2021/09/26 10:54:24;;;;;;;6.65;4.28;;;;;;;27.02;44.64;101465.44;4946602;29;20027;-79
2021/09/26 10:56:50;;;;;;;4.07;3.67;;;;;;;26.83;44.99;101466.44;4950465;29;20043;-79
2021/09/26 10:59:16;;;;;;;4.57;4.18;;;;;;;26.30;46.01;101464.53;4946423;29;20377;-79
2021/09/26 11:01:41;;;;;;;5.90;3.60;;;;;;;26.03;46.77;101469.75;4946690;29;20046;-79
2021/09/26 11:04:13;;;;;;;13.02;6.75;;;;;;;25.78;47.43;101462.34;4947126;29;20070;-78
2021/09/26 11:06:39;;;;;;;5.10;3.78;;;;;;;25.59;48.06;101456.03;4931316;29;20224;-78
2021/09/26 11:09:06;;;;;;;6.72;5.43;;;;;;;25.17;49.18;101455.53;4944109;29;20042;-79
2021/09/26 11:11:33;;;;;;;5.05;4.60;;;;;;;24.82;50.19;101452.47;4956720;29;20336;-79
2021/09/26 11:13:59;;;;;;;6.45;5.10;;;;;;;24.79;50.38;101451.88;4944334;29;20307;-78
2021/09/26 11:16:25;;;;;;;8.15;7.45;;;;;;;24.79;50.21;101459.94;4927018;29;20036;-79
2021/09/26 11:19:00;;;;;;;7.20;4.85;;;;;;;24.75;50.43;101459.34;4919883;29;20031;-78
2021/09/26 11:21:37;;;;;;;7.57;5.68;;;;;;;24.67;50.87;101462.75;4950288;29;20106;-78
2021/09/26 11:24:07;;;;;;;7.00;6.15;;;;;;;24.64;50.69;101460.34;4951755;29;20039;-78
2021/09/26 11:26:57;;;;;;;9.43;4.43;;;;;;;24.56;51.16;101465.56;4947299;29;20035;-78